Overview Statistics Trail Chart Weather Telemetry Raw packets
 

This is the latest recevied weather packets stored in our database for station/object K6CEG. If no packets are shown the sender has not sent any weather packets the latest 10 day(s).

<< 6 7 8 9 10 11 12 >>
Time Temp. Humidity Pressure Rain* Wind** Luminosity Snow
1788633250 30.56° C 28% 1016.7 hPa 0 mm - 762 W/m² -
1788632940 30° C 31% 1016.6 hPa 0 mm - 801 W/m² -
1788632639 30.56° C 29% 1016.7 hPa 0 mm - 843 W/m² -
1788632335 30.56° C 30% 1016.8 hPa 0 mm - 817 W/m² -
1788632035 30° C 30% 1016.7 hPa 0 mm - 799 W/m² -
1788631734 30° C 30% 1016.8 hPa 0 mm - 803 W/m² -
1788631448 30.56° C 29% 1016.7 hPa 0 mm - 804 W/m² -
1788631124 30° C 32% 1016.9 hPa 0 mm - 764 W/m² -
1788630824 30° C 32% 1016.7 hPa 0 mm - 738 W/m² -
1788630519 28.89° C 35% 1016.5 hPa 0 mm - 743 W/m² -
1788630215 28.89° C 35% 1016.7 hPa 0 mm - 766 W/m² -
1788629910 28.33° C 37% 1016.8 hPa 0 mm - 725 W/m² -
1788629606 27.78° C 38% 1016.6 hPa 0 mm - 698 W/m² -
1788629306 28.89° C 37% 1016.7 hPa 0 mm - 688 W/m² -
1788629004 28.33° C 37% 1016.6 hPa 0 mm - 720 W/m² -
1788628701 27.78° C 37% 1016.5 hPa 0 mm - 675 W/m² -
1788628397 27.78° C 40% 1016.7 hPa 0 mm - 629 W/m² -
1788628093 27.78° C 39% 1016.5 hPa 0 mm - 602 W/m² -
1788627803 27.78° C 38% 1016.8 hPa 0 mm - 567 W/m² -
1788627488 26.67° C 41% 1016.5 hPa 0 mm - 571 W/m² -
1788627184 26.67° C 42% 1016.5 hPa 0 mm - 524 W/m² -
1788626883 26.67° C 42% 1016.5 hPa 0 mm - 499 W/m² -
1788626578 26.11° C 44% 1016.5 hPa 0 mm - 478 W/m² -
1788626274 25.56° C 46% 1016.5 hPa 0 mm - 471 W/m² -
1788625974 26.11° C 46% 1016.5 hPa 0 mm - 437 W/m² -

* Rain latest hour (hover to see other rain measurements)
** Current wind speed in m/s (hover to see current wind gust speed)